Sunday, December 17, 2017, 2:42 PM EST
Back to Local

KSFZ, Pawtucket, North Central State Airport

Location: Smithfield, RI, United States Lat: 41.917
Local Time: 2:42 PM EST (19:42 GMT) Lon: -71.5
Time Zone: US/Eastern Elev: 439 ft

Show me the last for .
Show Decoded

2017-12-17 13:56 METAR KSFZ 171856Z AUTO 30006KT 10SM CLR M02/M13 A3020 RMK AO2 SLP175 T10171133
                 FZRANO =
2017-12-17 12:56 METAR KSFZ 171756Z AUTO VRB06KT 10SM CLR M01/M13 A3021 RMK AO2 SLP181 T10111128
                 10000 21111 58012 FZRANO =
2017-12-17 11:56 METAR KSFZ 171656Z AUTO 30009KT 10SM CLR M01/M14 A3023 RMK AO2 SLP186 T10061139
                 FZRANO =
2017-12-17 10:56 METAR KSFZ 171556Z AUTO 34008KT 10SM SCT095 M02/M13 A3024 RMK AO2 SLP192
                 T10171128 FZRANO =
2017-12-17 09:56 METAR KSFZ 171456Z AUTO 33008KT 10SM CLR M03/M12 A3025 RMK AO2 SLP193 T10331117
                 50002 FZRANO =
2017-12-17 08:56 METAR KSFZ 171356Z AUTO 33007KT 10SM CLR M06/M12 A3025 RMK AO2 SLP194 T10611117
                 FZRANO =
2017-12-17 07:56 METAR KSFZ 171256Z AUTO 32006KT 10SM CLR M09/M12 A3025 RMK AO2 SLP193 T10891122
                 FZRANO =
2017-12-17 06:56 METAR KSFZ 171156Z AUTO 32005KT 10SM CLR M11/M14 A3024 RMK AO2 SLP192 T11111144
                 11083 21111 50014 FZRANO =
2017-12-17 05:56 METAR KSFZ 171056Z AUTO 30004KT 10SM CLR M09/M13 A3024 RMK AO2 SLP191 T10941133
                 FZRANO =
2017-12-17 04:56 METAR KSFZ 170956Z AUTO 31006KT 10SM CLR M09/M12 A3022 RMK AO2 SLP183 T10891117
                 FZRANO =
2017-12-17 03:56 METAR KSFZ 170856Z AUTO 29005KT 10SM CLR M11/M12 A3020 RMK AO2 SLP176 T11061122
                 51013 FZRANO =
2017-12-17 02:56 METAR KSFZ 170756Z AUTO 30003KT 10SM CLR M10/M12 A3019 RMK AO2 SLP175 T11001122
                 FZRANO =
2017-12-17 01:56 METAR KSFZ 170656Z AUTO 27003KT 10SM CLR M09/M12 A3018 RMK AO2 SLP172 T10891117
                 FZRANO =
2017-12-17 00:56 METAR KSFZ 170556Z AUTO 29005KT 10SM CLR M09/M12 A3016 RMK AO2 SLP163 T10941117
                 11033 21094 51011 FZRANO =
2017-12-16 23:56 METAR KSFZ 170456Z AUTO 28003KT 10SM CLR M08/M12 A3015 RMK AO2 SLP162 T10781117
                 400111100 FZRANO =
2017-12-16 22:56 METAR KSFZ 170356Z AUTO 29005KT 10SM CLR M06/M11 A3015 RMK AO2 SLP159 T10561106
                 FZRANO =
2017-12-16 21:56 METAR KSFZ 170256Z AUTO 29005KT 10SM CLR M06/M09 A3013 RMK AO2 SLP153 T10561089
                 53023 FZRANO =
2017-12-16 20:56 METAR KSFZ 170156Z AUTO 30006KT 10SM CLR M04/M08 A3011 RMK AO2 SLP145 T10441083
                 FZRANO =
2017-12-16 19:56 METAR KSFZ 170056Z AUTO 30007KT 10SM CLR M04/M08 A3008 RMK AO2 SLP136 T10391078
                 FZRANO =
2017-12-16 18:56 METAR KSFZ 162356Z AUTO 32005KT 10SM FEW055 BKN070 M03/M07 A3006 RMK AO2 SLP129
                 60000 T10281072 10011 21028 53041 FZRANO =
2017-12-16 17:56 METAR KSFZ 162256Z AUTO 29009KT 10SM OVC070 M02/M07 A3001 RMK AO2 SNB18E38
                 SLP114 P0000 T10221067 FZRANO =
2017-12-16 16:56 METAR KSFZ 162156Z AUTO 31007KT 10SM FEW040 OVC100 M02/M07 A2997 RMK AO2 SLP100
                 T10171072 FZRANO =
2017-12-16 15:56 METAR KSFZ 162056Z AUTO 27006KT 10SM SCT044 BKN050 OVC100 M01/M07 A2994 RMK AO2
                 SLP088 T10111072 53014 FZRANO =

Support USWX by starting your Amazon purchase here.